Terminal Aerodrome Forecast
Issued by NWS Shreveport, LA

Current Version | Previous Version | Text Only | Print | Product List | Glossary On
Versions: 1 2 3 4 5 6 7 8 9 10 11 12 13 14 15 16 17
000
FTUS44 KSHV 191001 AAB
TAFELD
TAF AMD
KELD 191001Z 1910/2006 33008KT P6SM RA FEW060 SCT080 OVC100
      TEMPO 1910/1914 VRB03KT 5SM BR BKN009
     FM191400 21007KT P6SM SCT015 SCT140 SCT250
     FM191600 22010KT P6SM SCT030
     FM191900 22012G18KT P6SM SCT040
     FM200000 20010KT P6SM VCTS BKN040CB=

USA.gov is the U.S. government's official web portal to all federal, state and local government web resources and services.